Time;durP1;ratioP1;P1;durP2;ratioP2;P2;SDS_P1;SDS_P2;PMS_P1;PMS_P2;Temp;Humidity;BMP_temperature;BMP_pressure;BME280_temperature;BME280_humidity;BME280_pressure;Samples;Min_cycle;Max_cycle;Signal;HPM_P1;HPM_P2
2022/08/10 00:01:21;;;;;;;;;16.00;14.33;;;;;22.87;66.85;100283.19;5038185;28;45457;-75
2022/08/10 00:03:46;;;;;;;;;13.67;13.67;;;;;22.92;66.90;100275.06;5021093;28;45357;-75
2022/08/10 00:06:12;;;;;;;;;13.67;13.67;;;;;23.10;66.59;100295.97;5030562;28;45394;-75
2022/08/10 00:08:38;;;;;;;;;13.67;13.33;;;;;23.06;67.17;100296.97;5020540;28;45679;-76
2022/08/10 00:11:04;;;;;;;;;16.00;16.00;;;;;23.04;66.86;100293.47;5017792;28;46010;-75
2022/08/10 00:13:29;;;;;;;;;15.33;15.00;;;;;23.03;66.70;100283.72;5050092;28;45565;-76
2022/08/10 00:15:55;;;;;;;;;17.67;17.67;;;;;23.00;66.65;100283.78;5018442;28;45300;-76
2022/08/10 00:18:25;;;;;;;;;16.67;16.67;;;;;23.01;66.73;100291.72;5018938;28;45593;-72
2022/08/10 00:20:50;;;;;;;;;16.00;15.67;;;;;22.82;66.87;100256.69;5018333;28;45552;-76
2022/08/10 00:23:16;;;;;;;;;17.00;16.00;;;;;22.89;67.14;100273.38;5018047;28;45419;-75
2022/08/10 00:25:41;;;;;;;;;15.33;15.33;;;;;22.98;66.37;100286.47;5018180;28;45355;-75
2022/08/10 00:28:07;;;;;;;;;19.00;18.00;;;;;22.99;66.15;100282.00;5018262;28;45423;-75
2022/08/10 00:30:32;;;;;;;;;18.00;17.00;;;;;22.94;66.80;100283.91;5018033;28;45988;-75
2022/08/10 00:32:58;;;;;;;;;16.00;15.67;;;;;22.74;67.83;100268.44;5018040;28;45200;-72
2022/08/10 00:35:24;;;;;;;;;15.67;14.00;;;;;22.48;68.10;100245.09;5017889;28;45481;-73
2022/08/10 00:37:49;;;;;;;;;15.67;15.67;;;;;22.57;68.69;100271.50;5018344;28;45537;-76
2022/08/10 00:40:15;;;;;;;;;17.00;16.33;;;;;22.50;67.83;100264.56;5019408;28;45180;-72
2022/08/10 00:42:40;;;;;;;;;15.67;14.67;;;;;22.56;67.64;100270.66;5030917;28;45522;-73
2022/08/10 00:45:06;;;;;;;;;14.00;13.00;;;;;22.61;68.12;100266.06;5021686;28;45436;-72
2022/08/10 00:47:32;;;;;;;;;16.33;16.00;;;;;22.63;68.40;100276.69;5016552;28;45413;-72
2022/08/10 00:49:58;;;;;;;;;17.67;16.00;;;;;22.61;67.80;100271.38;5031763;28;45453;-72
2022/08/10 00:52:26;;;;;;;;;16.67;15.67;;;;;22.63;67.33;100264.25;5019280;28;45489;-74
2022/08/10 00:54:53;;;;;;;;;17.00;16.00;;;;;22.53;67.76;100256.53;5028229;28;45461;-73
2022/08/10 00:57:20;;;;;;;;;17.67;16.00;;;;;22.56;68.25;100259.09;5031163;28;45233;-74
2022/08/10 00:59:46;;;;;;;;;17.00;16.00;;;;;22.58;67.96;100249.28;5025190;28;46090;-73
2022/08/10 01:02:12;;;;;;;;;15.67;15.67;;;;;22.59;68.35;100259.91;5023768;28;45409;-73
2022/08/10 01:04:38;;;;;;;;;15.33;15.33;;;;;22.47;67.62;100235.38;5025225;28;45605;-73
2022/08/10 01:07:31;;;;;;;;;14.67;14.67;;;;;22.62;67.27;100250.97;5032361;28;45584;-73
2022/08/10 01:09:58;;;;;;;;;20.00;18.33;;;;;22.57;68.39;100261.72;5027979;28;45558;-74
2022/08/10 01:12:40;;;;;;;;;16.00;15.33;;;;;22.34;68.33;100237.44;5020828;28;45521;-74
2022/08/10 01:15:11;;;;;;;;;17.00;16.33;;;;;22.47;68.22;100256.69;5018937;28;45569;-74
2022/08/10 01:17:52;;;;;;;;;18.00;16.67;;;;;22.47;68.18;100256.69;5037025;28;45468;-74
2022/08/10 01:20:23;;;;;;;;;18.33;17.67;;;;;22.46;68.54;100260.22;5037009;28;46114;-74
2022/08/10 01:23:05;;;;;;;;;16.00;15.00;;;;;22.47;68.07;100257.53;5034684;28;45492;-73
2022/08/10 01:25:50;;;;;;;;;17.00;17.00;;;;;22.46;68.30;100249.59;5016488;28;45465;-74
2022/08/10 01:28:48;;;;;;;;;13.67;13.67;;;;;22.38;68.26;100257.75;5029802;28;45365;-73
2022/08/10 01:31:18;;;;;;;;;17.67;15.67;;;;;22.31;68.50;100256.16;5036109;28;45497;-74
2022/08/10 01:33:52;;;;;;;;;14.67;14.00;;;;;22.30;68.28;100252.59;5036263;28;45357;-73
2022/08/10 01:36:23;;;;;;;;;16.67;15.67;;;;;22.22;68.67;100241.22;5020563;28;45461;-74
2022/08/10 01:38:51;;;;;;;;;16.67;16.67;;;;;22.23;68.90;100243.84;5016469;28;45624;-74
2022/08/10 01:41:26;;;;;;;;;13.67;13.33;;;;;22.29;67.98;100257.97;5031545;28;45441;-74
2022/08/10 01:44:02;;;;;;;;;16.00;15.67;;;;;22.28;68.62;100258.88;5035865;28;45728;-74
2022/08/10 01:46:30;;;;;;;;;18.00;16.33;;;;;22.25;68.74;100259.81;5035927;28;45445;-74
2022/08/10 01:48:59;;;;;;;;;16.33;16.33;;;;;22.23;68.80;100254.50;5035835;28;45485;-74
2022/08/10 01:51:36;;;;;;;;;14.00;14.00;;;;;22.19;69.13;100250.16;5025491;28;46331;-74
2022/08/10 01:54:06;;;;;;;;;19.00;16.67;;;;;22.21;68.96;100250.13;5016300;28;45586;-73
2022/08/10 01:56:36;;;;;;;;;17.00;14.67;;;;;22.20;68.83;100254.59;5031463;28;45471;-74
2022/08/10 01:59:06;;;;;;;;;15.33;15.00;;;;;22.21;68.91;100250.13;5020150;28;45458;-74
2022/08/10 02:01:40;;;;;;;;;16.33;16.00;;;;;21.91;68.44;100194.06;5032544;28;45464;-74
2022/08/10 02:04:11;;;;;;;;;17.00;16.67;;;;;22.16;68.99;100230.72;5039203;28;45403;-74
2022/08/10 02:06:47;;;;;;;;;16.33;16.33;;;;;22.22;68.42;100243.88;5020114;28;45402;-74
2022/08/10 02:09:31;;;;;;;;;18.33;17.33;;;;;22.19;68.45;100238.66;5020119;28;45486;-74
2022/08/10 02:12:04;;;;;;;;;16.33;16.00;;;;;22.08;68.07;100216.72;5039496;28;46092;-74
2022/08/10 02:14:55;;;;;;;;;17.67;16.67;;;;;22.20;68.37;100232.41;5022661;28;45511;-74
2022/08/10 02:17:26;;;;;;;;;17.00;16.33;;;;;22.16;68.32;100223.66;5029798;28;45401;-73
2022/08/10 02:19:55;;;;;;;;;17.67;17.00;;;;;21.87;68.87;100187.06;5039308;28;45338;-74
2022/08/10 02:22:23;;;;;;;;;15.33;14.67;;;;;22.07;68.81;100228.28;5035280;28;45544;-74
2022/08/10 02:24:51;;;;;;;;;16.67;16.67;;;;;22.06;68.75;100222.06;5026533;28;45330;-74
2022/08/10 02:27:20;;;;;;;;;19.00;17.67;;;;;22.01;69.10;100221.31;5026800;28;45512;-74
2022/08/10 02:29:46;;;;;;;;;18.33;16.33;;;;;21.92;68.97;100222.38;5034473;28;45537;-74
2022/08/10 02:32:14;;;;;;;;;16.33;15.67;;;;;21.71;69.74;100213.09;5038488;28;46100;-75
2022/08/10 02:34:41;;;;;;;;;16.00;16.00;;;;;21.83;69.20;100234.09;5019587;28;45437;-74
2022/08/10 02:37:08;;;;;;;;;13.67;13.67;;;;;21.87;69.34;100236.72;5019880;28;45325;-74
2022/08/10 02:39:35;;;;;;;;;16.00;16.00;;;;;21.58;69.20;100191.19;5020018;28;45358;-74
2022/08/10 02:42:12;;;;;;;;;17.67;17.00;;;;;21.61;69.50;100196.47;5019680;28;46339;-74
2022/08/10 02:44:56;;;;;;;;;17.00;15.67;;;;;21.72;69.34;100232.56;5051617;28;45193;-74
2022/08/10 02:47:29;;;;;;;;;15.67;14.67;;;;;21.56;69.40;100219.59;5019539;28;45225;-74
2022/08/10 02:49:58;;;;;;;;;15.67;15.67;;;;;21.60;69.39;100221.28;5019841;28;45430;-74
2022/08/10 02:52:30;;;;;;;;;16.00;15.33;;;;;21.65;69.39;100227.38;5019454;28;46115;-74
2022/08/10 02:55:09;;;;;;;;;18.00;17.33;;;;;21.67;69.46;100222.06;5019514;28;45435;-74
2022/08/10 02:57:37;;;;;;;;;17.67;16.67;;;;;21.72;69.14;100221.94;5019426;28;45529;-74
2022/08/10 03:00:06;;;;;;;;;15.00;15.00;;;;;21.72;69.23;100224.59;5019614;28;45503;-74
2022/08/10 03:02:36;;;;;;;;;18.00;17.00;;;;;21.65;69.66;100219.41;5035533;28;46452;-74
2022/08/10 03:05:06;;;;;;;;;16.33;16.33;;;;;21.59;69.56;100224.88;5024829;28;45444;-74
2022/08/10 03:07:42;;;;;;;;;16.67;16.67;;;;;21.59;69.84;100229.31;5019885;28;45419;-74
2022/08/10 03:10:16;;;;;;;;;18.00;16.67;;;;;21.55;69.61;100227.63;5031565;28;45564;-74
2022/08/10 03:12:43;;;;;;;;;17.00;15.67;;;;;21.54;69.38;100218.75;5020610;28;46178;-74
2022/08/10 03:15:11;;;;;;;;;20.00;18.67;;;;;21.54;69.07;100224.06;5027208;28;45536;-74
2022/08/10 03:17:39;;;;;;;;;18.00;18.00;;;;;21.54;69.66;100225.84;5033427;28;45552;-74
2022/08/10 03:20:06;;;;;;;;;16.00;16.00;;;;;21.53;69.52;100210.84;5021832;28;45535;-74
2022/08/10 03:22:33;;;;;;;;;16.67;16.67;;;;;21.53;69.81;100208.19;5022627;28;45690;-74
2022/08/10 03:25:01;;;;;;;;;16.33;15.33;;;;;21.56;69.55;100219.59;5030000;28;45476;-75
2022/08/10 03:27:29;;;;;;;;;19.00;18.00;;;;;21.53;69.24;100211.69;5030782;28;46267;-75
2022/08/10 03:29:55;;;;;;;;;17.67;17.00;;;;;21.51;69.65;100226.81;5018144;28;45378;-76
2022/08/10 03:32:24;;;;;;;;;18.67;17.67;;;;;21.24;69.30;100170.59;5033132;28;46293;-75
2022/08/10 03:34:52;;;;;;;;;18.33;17.33;;;;;21.49;69.31;100212.69;5033976;28;45778;-75
2022/08/10 03:37:18;;;;;;;;;18.00;17.00;;;;;21.54;69.44;100220.53;5026297;28;45450;-75
2022/08/10 03:39:44;;;;;;;;;17.00;17.00;;;;;21.55;69.16;100211.69;5025977;28;45485;-75
2022/08/10 03:42:13;;;;;;;;;16.67;16.67;;;;;21.55;68.90;100209.88;5030486;28;46021;-75
2022/08/10 03:44:40;;;;;;;;;21.33;17.00;;;;;21.53;68.76;100217.03;5018387;28;45375;-76
2022/08/10 03:47:08;;;;;;;;;16.67;16.33;;;;;21.52;68.95;100211.72;5017990;28;45464;-75
2022/08/10 03:49:37;;;;;;;;;19.67;17.33;;;;;21.50;68.53;100214.41;5031015;28;45890;-75
2022/08/10 03:52:05;;;;;;;;;17.00;16.33;;;;;21.12;68.75;100162.00;5036138;28;45575;-75
2022/08/10 03:54:32;;;;;;;;;16.33;15.33;;;;;21.44;68.86;100218.06;5018336;28;45622;-75
2022/08/10 03:56:58;;;;;;;;;16.67;16.00;;;;;21.40;69.26;100224.31;5017897;28;45641;-75
2022/08/10 03:59:24;;;;;;;;;17.33;16.33;;;;;21.39;68.79;100211.06;5018240;28;45410;-75
2022/08/10 04:01:51;;;;;;;;;15.67;15.67;;;;;21.35;69.19;100215.56;5032897;28;45559;-75
2022/08/10 04:04:18;;;;;;;;;17.00;16.67;;;;;21.34;69.02;100207.63;5017749;28;45307;-75
2022/08/10 04:06:44;;;;;;;;;19.33;17.00;;;;;21.05;69.44;100180.72;5026581;28;45674;-76
2022/08/10 04:09:10;;;;;;;;;15.67;15.33;;;;;21.19;69.96;100214.13;5024491;28;45376;-76
2022/08/10 04:11:35;;;;;;;;;17.50;17.50;;;;;21.17;70.04;100214.16;5017851;28;45699;-75
2022/08/10 04:14:03;;;;;;;;;16.33;16.33;;;;;21.13;69.91;100209.81;5018008;28;45540;-75
2022/08/10 04:16:29;;;;;;;;;19.00;18.33;;;;;21.22;69.79;100211.41;5017765;28;45383;-76
2022/08/10 04:18:54;;;;;;;;;17.33;16.67;;;;;21.14;69.49;100200.03;5017837;28;45321;-74
2022/08/10 04:21:25;;;;;;;;;15.67;15.67;;;;;21.11;69.07;100193.03;5032709;28;46085;-75
2022/08/10 04:23:54;;;;;;;;;18.33;17.33;;;;;21.02;69.08;100177.25;5036311;28;45433;-75
2022/08/10 04:26:20;;;;;;;;;18.67;17.00;;;;;21.22;69.71;100214.91;5036865;28;45441;-75
2022/08/10 04:28:47;;;;;;;;;14.67;14.67;;;;;21.21;69.31;100210.53;5037033;28;46051;-75
2022/08/10 04:31:15;;;;;;;;;18.25;18.00;;;;;21.09;69.39;100194.81;5036160;28;45400;-76
2022/08/10 04:33:47;;;;;;;;;18.33;18.00;;;;;21.00;69.35;100176.41;5031004;28;45504;-75
2022/08/10 04:36:15;;;;;;;;;14.67;14.67;;;;;21.24;69.37;100220.22;5027974;28;45398;-75
2022/08/10 04:38:43;;;;;;;;;15.67;15.67;;;;;21.20;69.66;100211.41;5022006;28;45474;-74
2022/08/10 04:41:09;;;;;;;;;16.33;15.33;;;;;20.89;69.15;100157.13;5034915;28;45524;-75
2022/08/10 04:43:35;;;;;;;;;15.67;14.67;;;;;21.11;68.82;100192.13;5036271;28;45492;-75
2022/08/10 04:46:00;;;;;;;;;16.33;16.33;;;;;21.20;68.94;100216.72;5035969;28;45587;-75
2022/08/10 04:48:26;;;;;;;;;18.33;16.67;;;;;21.18;68.76;100212.34;5030980;28;45442;-75
2022/08/10 04:50:51;;;;;;;;;17.33;14.67;;;;;21.17;69.02;100219.47;5027060;28;45968;-75
2022/08/10 04:53:17;;;;;;;;;16.00;16.00;;;;;21.17;69.03;100215.91;5022935;28;45563;-75
2022/08/10 04:55:43;;;;;;;;;16.67;16.00;;;;;21.18;69.13;100229.16;5018695;28;45501;-75
2022/08/10 04:58:08;;;;;;;;;16.67;16.67;;;;;21.09;68.67;100210.75;5036977;28;45355;-75
2022/08/10 05:00:34;;;;;;;;;16.67;15.67;;;;;20.88;68.57;100176.63;5036241;28;46174;-75
2022/08/10 05:03:00;;;;;;;;;19.67;18.67;;;;;21.16;69.09;100230.97;5022475;28;46043;-76
2022/08/10 05:05:25;;;;;;;;;19.67;19.00;;;;;21.16;69.03;100233.63;5016660;28;45165;-75
2022/08/10 05:07:51;;;;;;;;;18.50;18.25;;;;;21.14;69.11;100219.50;5023050;28;45458;-76
2022/08/10 05:10:16;;;;;;;;;16.33;16.33;;;;;20.97;69.69;100225.13;5036429;28;45425;-75
2022/08/10 05:12:42;;;;;;;;;21.00;20.75;;;;;20.84;69.68;100205.88;5028823;28;45381;-75
2022/08/10 05:15:12;;;;;;;;;21.67;18.33;;;;;21.08;69.94;100234.69;5020672;28;45308;-76
2022/08/10 05:17:40;;;;;;;;;17.50;17.00;;;;;21.07;69.78;100231.16;5032061;28;45507;-75
2022/08/10 05:20:08;;;;;;;;;27.50;24.00;;;;;21.10;69.21;100225.78;5033933;28;46176;-75
2022/08/10 05:22:42;;;;;;;;;28.00;22.75;;;;;21.15;69.47;100223.94;5031136;28;46132;-75
2022/08/10 05:25:18;;;;;;;;;20.50;18.50;;;;;21.24;68.81;100225.53;5017474;28;45446;-75
2022/08/10 05:27:45;;;;;;;;;18.50;17.50;;;;;21.30;68.87;100222.75;5016886;28;45280;-75
2022/08/10 05:30:14;;;;;;;;;16.33;15.00;;;;;21.28;68.63;100231.66;5016770;28;45492;-74
2022/08/10 05:32:40;;;;;;;;;17.67;16.33;;;;;21.29;68.64;100228.06;5016738;28;45937;-75
2022/08/10 05:35:07;;;;;;;;;17.67;16.33;;;;;21.31;68.88;100235.13;5027145;28;45508;-75
2022/08/10 05:37:32;;;;;;;;;18.00;17.67;;;;;21.42;68.30;100237.56;5036303;28;45529;-76
2022/08/10 05:40:01;;;;;;;;;16.67;16.33;;;;;21.51;68.09;100236.56;5028175;28;46210;-75
2022/08/10 05:42:28;;;;;;;;;20.33;19.00;;;;;21.54;68.18;100229.38;5033983;28;45389;-75
2022/08/10 05:44:54;;;;;;;;;19.33;17.00;;;;;21.51;67.81;100221.50;5035290;28;45436;-75
2022/08/10 05:47:20;;;;;;;;;18.33;17.33;;;;;21.56;68.10;100219.59;5025815;28;45366;-75
2022/08/10 05:49:49;;;;;;;;;14.67;14.67;;;;;21.63;68.17;100231.88;5016066;28;46480;-75
2022/08/10 05:52:16;;;;;;;;;18.33;16.67;;;;;21.74;67.61;100236.06;5016388;28;45564;-75
2022/08/10 05:54:42;;;;;;;;;16.67;16.33;;;;;21.81;67.15;100235.06;5021577;28;45272;-75
2022/08/10 05:57:08;;;;;;;;;16.67;16.00;;;;;21.89;66.90;100241.09;5035899;28;45346;-75
2022/08/10 05:59:36;;;;;;;;;17.67;16.33;;;;;21.97;67.03;100230.28;5035350;28;45654;-76
2022/08/10 06:02:08;;;;;;;;;18.00;17.67;;;;;22.10;66.28;100236.19;5019104;28;45672;-75
2022/08/10 06:04:37;;;;;;;;;20.00;19.00;;;;;22.19;66.38;100222.69;5035241;28;45655;-75
2022/08/10 06:07:07;;;;;;;;;19.67;17.67;;;;;22.24;65.86;100218.16;5024080;28;45630;-76
2022/08/10 06:09:36;;;;;;;;;18.67;16.00;;;;;22.30;65.69;100212.69;5031032;28;45607;-75
2022/08/10 06:12:04;;;;;;;;;16.00;14.67;;;;;22.48;65.30;100199.84;5015727;28;45542;-75
2022/08/10 06:17:16;;;;;;;;;18.67;16.00;;;;;22.74;64.30;100217.81;5016366;28;45366;-75
2022/08/10 06:19:42;;;;;;;;;17.00;16.67;;;;;22.14;63.86;100089.75;5016836;28;45970;-75
2022/08/10 06:22:09;;;;;;;;;24.75;23.75;;;;;22.99;63.97;100205.63;5016919;28;45340;-75
2022/08/10 06:24:39;;;;;;;;;17.00;17.00;;;;;23.17;63.50;100206.94;5016456;28;45331;-75
2022/08/10 06:27:05;;;;;;;;;15.33;15.33;;;;;24.87;58.79;100208.03;5016405;28;45172;-75
2022/08/10 06:29:34;;;;;;;;;16.33;13.67;;;;;27.61;52.60;100206.97;5016184;28;45549;-76
2022/08/10 06:32:01;;;;;;;;;17.00;16.00;;;;;29.77;47.88;100205.16;5016317;28;45231;-75
2022/08/10 06:34:38;;;;;;;;;16.33;14.00;;;;;31.60;44.61;100197.97;5021069;28;45334;-75
2022/08/10 06:37:06;;;;;;;;;18.67;16.00;;;;;32.90;40.62;100196.63;5035302;28;45495;-75
2022/08/10 06:39:32;;;;;;;;;19.00;16.67;;;;;33.73;37.16;100171.03;5028804;28;46276;-76
2022/08/10 06:42:16;;;;;;;;;17.67;15.33;;;;;34.86;36.83;100194.22;5015642;28;45471;-76
2022/08/10 06:44:54;;;;;;;;;17.33;17.00;;;;;36.00;36.30;100200.63;5025443;28;45523;-76
2022/08/10 06:47:25;;;;;;;;;17.67;17.67;;;;;36.91;33.91;100201.22;5019534;28;45371;-76
2022/08/10 06:49:54;;;;;;;;;16.00;15.00;;;;;37.66;32.61;100210.16;5019134;28;45584;-76
2022/08/10 06:52:22;;;;;;;;;15.00;14.33;;;;;38.33;30.47;100192.28;5019281;28;45169;-77
2022/08/10 06:54:52;;;;;;;;;13.67;13.33;;;;;38.92;30.74;100166.72;5022280;28;45450;-77
2022/08/10 06:57:21;;;;;;;;;11.67;11.00;;;;;39.87;27.67;100207.72;5030609;28;45580;-77
2022/08/10 06:59:49;;;;;;;;;14.33;13.67;;;;;40.38;27.68;100202.69;5018753;28;45335;-77
2022/08/10 07:02:26;;;;;;;;;14.00;13.33;;;;;40.84;25.85;100204.31;5033853;28;45557;-77
2022/08/10 07:04:59;;;;;;;;;17.33;16.67;;;;;41.36;26.12;100186.22;5018793;28;45348;-77
2022/08/10 07:07:28;;;;;;;;;14.33;14.00;;;;;42.03;25.73;100209.19;5029159;28;45617;-77
2022/08/10 07:09:57;;;;;;;;;13.00;13.00;;;;;42.22;25.22;100213.53;5037900;28;46077;-77
2022/08/10 07:12:24;;;;;;;;;14.00;11.67;;;;;42.64;24.29;100222.69;5033431;28;45283;-75
2022/08/10 07:14:52;;;;;;;;;12.67;12.67;;;;;43.00;23.75;100222.38;5018349;28;45607;-75
2022/08/10 07:17:23;;;;;;;;;12.00;12.00;;;;;43.47;23.53;100224.38;5018591;28;45402;-76
2022/08/10 07:19:53;;;;;;;;;13.00;12.67;;;;;44.03;22.39;100225.25;5033098;28;46233;-76
2022/08/10 07:22:22;;;;;;;;;11.67;11.67;;;;;44.33;22.42;100210.78;5037842;28;45366;-76
2022/08/10 07:24:48;;;;;;;;;11.33;11.00;;;;;44.73;21.58;100234.47;5037672;28;45405;-76
2022/08/10 07:27:17;;;;;;;;;13.33;13.00;;;;;45.21;21.26;100229.56;5038149;28;45292;-76
2022/08/10 07:29:43;;;;;;;;;14.00;11.67;;;;;45.61;20.80;100232.94;5020192;28;45516;-76
2022/08/10 07:32:12;;;;;;;;;12.67;12.00;;;;;45.93;20.91;100227.25;5017917;28;45582;-78
2022/08/10 07:34:39;;;;;;;;;12.33;12.00;;;;;46.35;19.76;100240.28;5017767;28;45560;-78
2022/08/10 07:37:07;;;;;;;;;12.00;11.00;;;;;46.71;19.48;100231.13;5017996;28;45485;-77
2022/08/10 07:39:37;;;;;;;;;13.33;13.00;;;;;47.17;18.59;100236.22;5017300;28;45978;-78
2022/08/10 07:42:03;;;;;;;;;13.00;12.00;;;;;47.44;18.90;100230.00;5023411;28;45442;-77
2022/08/10 07:44:32;;;;;;;;;11.00;11.00;;;;;47.86;19.56;100222.63;5022709;28;45579;-77
2022/08/10 07:47:02;;;;;;;;;12.67;12.00;;;;;48.43;18.30;100234.34;5027955;28;45640;-78
2022/08/10 07:49:34;;;;;;;;;13.00;11.67;;;;;48.74;19.07;100215.22;5031273;28;45480;-78
2022/08/10 07:52:05;;;;;;;;;12.00;12.00;;;;;49.15;18.10;100233.59;5026742;28;45173;-76
2022/08/10 07:54:36;;;;;;;;;12.33;12.00;;;;;49.54;16.86;100226.25;5023740;28;45185;-75
2022/08/10 07:57:05;;;;;;;;;11.67;11.67;;;;;49.78;16.81;100218.31;5036944;28;45378;-76
2022/08/10 07:59:38;;;;;;;;;14.67;14.33;;;;;50.06;17.43;100217.09;5036184;28;45286;-76
2022/08/10 08:02:16;;;;;;;;;12.33;12.00;;;;;50.22;17.47;100202.72;5029851;28;45724;-76
2022/08/10 08:04:43;;;;;;;;;10.67;10.67;;;;;50.19;16.91;100211.50;5036720;28;45538;-76
2022/08/10 08:07:12;;;;;;;;;12.00;12.00;;;;;50.45;17.26;100184.66;5022832;28;45432;-76
2022/08/10 08:09:38;;;;;;;;;11.67;11.33;;;;;51.02;16.68;100198.50;5017150;28;46170;-76
2022/08/10 08:12:07;;;;;;;;;11.67;11.33;;;;;51.46;16.23;100210.50;5017332;28;45258;-76
2022/08/10 08:14:34;;;;;;;;;14.00;12.33;;;;;51.87;15.85;100200.59;5028124;28;45504;-76
2022/08/10 08:17:00;;;;;;;;;10.00;10.00;;;;;52.04;15.96;100175.72;5036544;28;45548;-77
2022/08/10 08:19:28;;;;;;;;;13.00;12.67;;;;;52.35;15.49;100179.34;5036295;28;45252;-76
2022/08/10 08:21:55;;;;;;;;;12.33;12.33;;;;;52.86;14.98;100197.44;5020752;28;45355;-77
2022/08/10 08:24:22;;;;;;;;;11.00;11.00;;;;;53.11;14.35;100176.78;5019774;28;45486;-77
2022/08/10 08:26:50;;;;;;;;;8.00;8.00;;;;;53.18;14.10;100167.22;5029030;28;45413;-77
2022/08/10 08:29:16;;;;;;;;;11.67;11.67;;;;;53.64;15.34;100206.47;5016740;28;45394;-77
2022/08/10 08:31:43;;;;;;;;;11.67;10.67;;;;;53.97;14.42;100203.00;5032408;28;45464;-76
2022/08/10 08:34:11;;;;;;;;;13.67;13.00;;;;;53.41;15.24;100191.47;5020342;28;45393;-77
2022/08/10 08:36:40;;;;;;;;;14.00;12.67;;;;;53.81;14.86;100199.03;5023450;28;45509;-77
2022/08/10 08:39:06;;;;;;;;;11.00;11.00;;;;;54.11;14.73;100197.09;5027917;28;45580;-78
2022/08/10 08:41:46;;;;;;;;;11.00;11.00;;;;;54.25;14.77;100192.91;5028546;28;45303;-77
2022/08/10 08:44:56;;;;;;;;;13.00;11.00;;;;;54.12;14.84;100188.44;5035583;28;45556;-78
2022/08/10 08:47:45;;;;;;;;;11.00;10.33;;;;;54.23;13.90;100183.94;5036437;28;46187;-77
2022/08/10 08:50:13;;;;;;;;;10.33;9.67;;;;;54.47;13.55;100197.78;5018183;28;46030;-77
2022/08/10 08:53:20;;;;;;;;;9.00;9.00;;;;;54.75;11.97;100194.06;5021982;28;45389;-78
2022/08/10 08:56:13;;;;;;;;;10.00;10.00;;;;;54.81;12.16;100195.88;5020056;28;45646;-76
2022/08/10 08:58:48;;;;;;;;;12.00;11.00;;;;;54.82;12.65;100195.63;5016449;28;45426;-77
2022/08/10 09:01:36;;;;;;;;;9.00;9.00;;;;;54.77;12.61;100191.84;5039304;28;47883;-77
2022/08/10 09:04:07;;;;;;;;;8.67;8.67;;;;;54.90;12.88;100199.94;5015631;28;45513;-77
2022/08/10 09:07:11;;;;;;;;;9.67;8.67;;;;;55.01;11.80;100190.56;5015583;28;46186;-78
2022/08/10 09:10:03;;;;;;;;;7.33;7.33;;;;;54.85;12.02;100163.47;5016614;28;45260;-78
2022/08/10 09:12:50;;;;;;;;;9.00;9.00;;;;;55.10;12.09;100185.41;5016504;28;45495;-78
2022/08/10 09:15:35;;;;;;;;;8.67;8.67;;;;;54.94;11.10;100175.94;5016304;28;45475;-78
2022/08/10 09:18:19;;;;;;;;;9.67;9.67;;;;;54.84;10.97;100186.97;5016645;28;45445;-78
2022/08/10 09:21:12;;;;;;;;;11.00;10.67;;;;;54.69;12.01;100183.91;5016639;28;45247;-78
2022/08/10 09:23:51;;;;;;;;;22.75;22.00;;;;;54.54;12.66;100176.09;5015940;28;46050;-77
2022/08/10 09:26:21;;;;;;;;;11.75;11.75;;;;;54.33;12.37;100180.47;5016023;28;45437;-77
2022/08/10 09:28:48;;;;;;;;;11.67;11.67;;;;;54.05;12.39;100183.03;5026839;28;45502;-77
2022/08/10 09:31:19;;;;;;;;;10.00;9.67;;;;;53.90;13.00;100168.75;5035420;28;45420;-77
2022/08/10 09:34:11;;;;;;;;;9.67;9.67;;;;;53.72;11.93;100175.38;5017772;28;45516;-76
2022/08/10 09:36:59;;;;;;;;;10.00;9.00;;;;;53.49;11.63;100170.72;5015334;28;46853;-76
2022/08/10 09:39:34;;;;;;;;;8.00;8.00;;;;;53.56;12.32;100182.59;5030546;28;45501;-77
2022/08/10 09:42:06;;;;;;;;;10.00;10.00;;;;;53.38;12.32;100171.56;5030704;28;45381;-78
2022/08/10 09:44:52;;;;;;;;;8.67;8.33;;;;;53.31;12.02;100168.91;5029521;28;45649;-77
2022/08/10 09:47:55;;;;;;;;;9.00;8.67;;;;;53.21;12.40;100174.28;5014845;28;45237;-78
2022/08/10 09:50:39;;;;;;;;;9.00;9.00;;;;;53.19;13.05;100174.50;5016110;28;45524;-77
2022/08/10 09:53:23;;;;;;;;;7.33;7.33;;;;;53.17;12.24;100168.34;5015578;28;45511;-78
2022/08/10 09:56:31;;;;;;;;;9.00;8.67;;;;;53.08;11.39;100167.81;5029457;28;45525;-78
2022/08/10 09:59:14;;;;;;;;;10.00;10.00;;;;;53.11;12.43;100166.50;5023847;28;45525;-78
2022/08/10 10:01:53;;;;;;;;;9.33;9.33;;;;;53.08;11.72;100167.81;5017933;28;45410;-77
2022/08/10 10:04:39;;;;;;;;;9.00;8.33;;;;;53.10;11.97;100162.00;5015974;28;45248;-78
2022/08/10 10:07:07;;;;;;;;;8.67;8.33;;;;;52.79;12.51;100157.59;5028838;28;46246;-78
2022/08/10 10:10:02;;;;;;;;;9.00;9.00;;;;;52.84;12.37;100155.81;5017253;28;45700;-77
2022/08/10 10:12:52;;;;;;;;;9.00;9.00;;;;;52.92;12.23;100160.19;4989309;28;45598;-78
2022/08/10 10:15:32;;;;;;;;;8.67;8.67;;;;;53.06;12.18;100161.63;5030998;28;45451;-77
2022/08/10 10:18:06;;;;;;;;;7.00;6.33;;;;;53.11;11.90;100146.97;5021986;28;46215;-79
2022/08/10 10:20:53;;;;;;;;;7.33;7.33;;;;;53.00;11.94;100148.66;5038361;28;45410;-78
2022/08/10 10:23:45;;;;;;;;;8.67;8.00;;;;;52.65;12.29;100138.34;5019384;28;45405;-78
2022/08/10 10:26:35;;;;;;;;;9.33;8.00;;;;;52.84;12.37;100152.19;5019020;28;45265;-77
2022/08/10 10:29:22;;;;;;;;;8.00;7.67;;;;;52.84;12.47;100149.41;5033582;28;46108;-78
2022/08/10 10:31:55;;;;;;;;;8.00;8.00;;;;;52.82;11.21;100145.97;5018787;28;45319;-77
2022/08/10 10:34:50;;;;;;;;;8.00;8.00;;;;;52.36;11.79;100142.03;5018467;28;45458;-78
2022/08/10 10:37:19;;;;;;;;;9.00;8.00;;;;;52.17;12.63;100139.31;5017609;28;45427;-78
2022/08/10 10:39:50;;;;;;;;;8.00;7.33;;;;;52.33;12.32;100131.34;5026862;28;45289;-78
2022/08/10 10:42:55;;;;;;;;;9.00;9.00;;;;;52.05;11.83;100125.34;5023993;28;45520;-78
2022/08/10 10:45:39;;;;;;;;;8.00;7.67;;;;;51.81;12.46;100118.81;5021216;28;45461;-78
2022/08/10 10:48:16;;;;;;;;;8.33;8.33;;;;;51.46;13.08;100110.28;5031991;28;45522;-78
2022/08/10 10:51:22;;;;;;;;;8.00;8.00;;;;;51.21;12.85;100116.78;5026449;28;46262;-77
2022/08/10 10:54:01;;;;;;;;;10.33;9.00;;;;;51.23;13.74;100119.34;5067388;28;45819;-77
2022/08/10 10:56:53;;;;;;;;;8.67;8.67;;;;;50.91;13.60;100131.41;5017821;28;45481;-77
2022/08/10 10:59:29;;;;;;;;;10.00;9.67;;;;;50.03;13.32;100123.97;5032539;28;46106;-77
2022/08/10 11:02:08;;;;;;;;;9.33;9.33;;;;;49.54;14.21;100112.47;5021924;28;46184;-77
2022/08/10 11:04:41;;;;;;;;;9.00;9.00;;;;;48.94;14.15;100115.38;5037008;28;45457;-78
2022/08/10 11:07:26;;;;;;;;;8.33;8.33;;;;;46.83;15.36;100107.94;5037244;28;45516;-76
2022/08/10 11:09:58;;;;;;;;;9.33;9.33;;;;;46.19;15.99;100106.06;5031607;28;45398;-78
2022/08/10 11:12:26;;;;;;;;;10.67;9.67;;;;;45.81;16.50;100099.94;5016373;28;45356;-77
2022/08/10 11:15:06;;;;;;;;;10.33;10.33;;;;;45.18;17.36;100094.84;5017065;28;45599;-77
2022/08/10 11:17:31;;;;;;;;;9.67;9.33;;;;;44.62;18.70;100084.22;5036811;28;45488;-76
2022/08/10 11:20:16;;;;;;;;;8.67;8.67;;;;;43.96;18.78;100048.13;5037236;28;45486;-78
2022/08/10 11:23:13;;;;;;;;;10.00;10.00;;;;;43.51;19.43;100088.25;5021522;28;45422;-77
2022/08/10 11:25:43;;;;;;;;;10.67;10.67;;;;;43.16;19.74;100081.31;5017248;28;45262;-77
2022/08/10 11:28:15;;;;;;;;;10.33;10.33;;;;;42.54;20.30;100068.22;5024351;28;45500;-77
2022/08/10 11:31:18;;;;;;;;;10.33;10.33;;;;;42.67;20.28;100069.41;5031594;28;45548;-77
2022/08/10 11:33:56;;;;;;;;;9.33;9.33;;;;;42.75;20.40;100073.19;5017472;28;45604;-76
2022/08/10 11:36:58;;;;;;;;;9.00;8.67;;;;;42.48;20.40;100072.53;5017159;28;45354;-77
2022/08/10 11:39:30;;;;;;;;;11.67;11.00;;;;;42.03;20.02;100072.00;5035245;28;45422;-77